^^
Your Local Weather - Clay, NY Station Historical Data
Daily Summary for January 1, 2018 Units:  Both    English   Metric
« Previous Day
Next Day »
Daily Weekly Monthly Yearly Custom
  High: Low: Average:
Temperature: 14.5 °F /  -9.7 °C -14.8 °F /  -26 °C 3.7 °F /  -15.7 °C
Dew Point: 9.7 °F /  -12.4 °C -19.2 °F /  -28.4 °C -2.4 °F /  -19.1 °C
Humidity: 87% 58% 76%
Wind Speed: 6.0mph /  9.7km/h - 1.8mph /  2.9km/h
Wind Gust: 13.0mph /  20.9km/h - -
Wind- - SW
Pressure: 30.42 in /  1030 hPa 30.24 in /  1023.9 hPa -
Precipitation: 0.00 in /  0 mm    
Historical Graphs
 
 
Tabular Data for January 1, 2018
Time Temperature Dew Point Pressure Wind Wind Speed Wind Gust Humidity Rainfall Rate (Hourly) solar
00:00 -2.8 °F /  -19.3 °C -6.4 °F /  -21.3 °C 30.39in /  1029hPa Calm     84% 0.00in /  0mm 0 W/m2
00:06 -2.5 °F /  -19.2 °C -6.4 °F /  -21.3 °C 30.39in /  1029hPa Calm     83% 0.00in /  0mm 0 W/m2
00:12 -2.2 °F /  -19 °C -5.8 °F /  -21 °C 30.39in /  1029hPa Calm     84% 0.00in /  0mm 0 W/m2
00:18 -1.9 °F /  -18.8 °C -5.6 °F /  -20.9 °C 30.39in /  1029hPa Calm     84% 0.00in /  0mm 0 W/m2
00:24 -1.7 °F /  -18.7 °C -5.4 °F /  -20.8 °C 30.39in /  1029hPa Calm     84% 0.00in /  0mm 0 W/m2
00:30 -1.6 °F /  -18.7 °C -5.3 °F /  -20.7 °C 30.39in /  1029hPa Calm     84% 0.00in /  0mm 0 W/m2
00:36 -1.4 °F /  -18.6 °C -5.1 °F /  -20.6 °C 30.39in /  1029hPa Calm     84% 0.00in /  0mm 0 W/m2
00:42 -1.0 °F /  -18.3 °C -4.7 °F /  -20.4 °C 30.39in /  1029hPa Calm     84% 0.00in /  0mm 0 W/m2
00:50 -0.8 °F /  -18.2 °C -4.5 °F /  -20.3 °C 30.39in /  1029hPa Calm     84% 0.00in /  0mm 0 W/m2
00:56 -0.8 °F /  -18.2 °C -4.5 °F /  -20.3 °C 30.39in /  1029hPa Calm     84% 0.00in /  0mm 0 W/m2
01:02 -0.8 °F /  -18.2 °C -4.5 °F /  -20.3 °C 30.39in /  1029hPa Calm     84% 0.00in /  0mm 0 W/m2
01:08 -0.8 °F /  -18.2 °C -4.5 °F /  -20.3 °C 30.39in /  1029hPa Calm     84% 0.00in /  0mm 0 W/m2
01:12 -0.7 °F /  -18.2 °C -4.4 °F /  -20.2 °C 30.39in /  1029hPa Calm     84% 0.00in /  0mm 0 W/m2
01:18 -0.7 °F /  -18.2 °C -4.4 °F /  -20.2 °C 30.39in /  1029hPa Calm     84% 0.00in /  0mm 0 W/m2
01:22 -0.7 °F /  -18.2 °C -4.4 °F /  -20.2 °C 30.39in /  1029hPa Calm     84% 0.00in /  0mm 0 W/m2
01:28 -0.6 °F /  -18.1 °C -4.3 °F /  -20.2 °C 30.39in /  1029hPa Calm     84% 0.00in /  0mm 0 W/m2
01:34 -0.5 °F /  -18.1 °C -4.2 °F /  -20.1 °C 30.39in /  1029hPa Calm     84% 0.00in /  0mm 0 W/m2
01:40 -0.4 °F /  -18 °C -4.1 °F /  -20.1 °C 30.39in /  1029hPa Calm     84% 0.00in /  0mm 0 W/m2
01:46 -0.3 °F /  -17.9 °C -4.0 °F /  -20 °C 30.39in /  1029hPa Calm     84% 0.00in /  0mm 0 W/m2
01:52 -0.2 °F /  -17.9 °C -3.9 °F /  -19.9 °C 30.40in /  1029.3hPa Calm   1.0mph /  1.6km/h 84% 0.00in /  0mm 0 W/m2
02:00 0.1 °F /  -17.7 °C -3.6 °F /  -19.8 °C 30.40in /  1029.3hPa Calm     84% 0.00in /  0mm 0 W/m2
02:06 0.1 °F /  -17.7 °C -3.6 °F /  -19.8 °C 30.40in /  1029.3hPa ENE 1.0mph /  1.6km/h 1.0mph /  1.6km/h 84% 0.00in /  0mm 0 W/m2
02:12 0.1 °F /  -17.7 °C -3.8 °F /  -19.9 °C 30.40in /  1029.3hPa North 1.0mph /  1.6km/h 2.0mph /  3.2km/h 83% 0.00in /  0mm 0 W/m2
02:18 0.0 °F /  -17.8 °C -3.9 °F /  -19.9 °C 30.40in /  1029.3hPa North 1.0mph /  1.6km/h 2.0mph /  3.2km/h 83% 0.00in /  0mm 0 W/m2
02:24 -0.1 °F /  -17.8 °C -4.0 °F /  -20 °C 30.41in /  1029.7hPa North 1.0mph /  1.6km/h 1.0mph /  1.6km/h 83% 0.00in /  0mm 0 W/m2
02:30 -0.1 °F /  -17.8 °C -4.0 °F /  -20 °C 30.41in /  1029.7hPa North 1.0mph /  1.6km/h 1.0mph /  1.6km/h 83% 0.00in /  0mm 0 W/m2
02:36 -0.2 °F /  -17.9 °C -4.1 °F /  -20.1 °C 30.41in /  1029.7hPa NNE 2.0mph /  3.2km/h 2.0mph /  3.2km/h 83% 0.00in /  0mm 0 W/m2
02:42 -0.3 °F /  -17.9 °C -4.2 °F /  -20.1 °C 30.41in /  1029.7hPa NNE 1.0mph /  1.6km/h 2.0mph /  3.2km/h 83% 0.00in /  0mm 0 W/m2
02:44 -0.3 °F /  -17.9 °C -4.2 °F /  -20.1 °C 30.41in /  1029.7hPa NNE 1.0mph /  1.6km/h 2.0mph /  3.2km/h 83% 0.00in /  0mm 0 W/m2
02:50 -0.5 °F /  -18.1 °C -4.7 °F /  -20.4 °C 30.41in /  1029.7hPa NNE 1.0mph /  1.6km/h 2.0mph /  3.2km/h 82% 0.00in /  0mm 0 W/m2
02:56 -0.7 °F /  -18.2 °C -4.9 °F /  -20.5 °C 30.41in /  1029.7hPa North 1.0mph /  1.6km/h 2.0mph /  3.2km/h 82% 0.00in /  0mm 0 W/m2
03:02 -1.0 °F /  -18.3 °C -5.2 °F /  -20.7 °C 30.41in /  1029.7hPa Calm   2.0mph /  3.2km/h 82% 0.00in /  0mm 0 W/m2
03:08 -1.2 °F /  -18.4 °C -5.4 °F /  -20.8 °C 30.41in /  1029.7hPa Calm   2.0mph /  3.2km/h 82% 0.00in /  0mm 0 W/m2
03:14 -1.5 °F /  -18.6 °C -5.9 °F /  -21.1 °C 30.40in /  1029.3hPa Calm     81% 0.00in /  0mm 0 W/m2
03:22 -2.0 °F /  -18.9 °C -6.4 °F /  -21.3 °C 30.40in /  1029.3hPa Calm     81% 0.00in /  0mm 0 W/m2
03:28 -2.6 °F /  -19.2 °C -7.0 °F /  -21.7 °C 30.40in /  1029.3hPa Calm     81% 0.00in /  0mm 0 W/m2
03:30 -2.8 °F /  -19.3 °C -7.2 °F /  -21.8 °C 30.40in /  1029.3hPa Calm     81% 0.00in /  0mm 0 W/m2
03:36 -3.4 °F /  -19.7 °C -7.8 °F /  -22.1 °C 30.40in /  1029.3hPa Calm     81% 0.00in /  0mm 0 W/m2
03:42 -3.9 °F /  -19.9 °C -8.3 °F /  -22.4 °C 30.40in /  1029.3hPa Calm     81% 0.00in /  0mm 0 W/m2
03:46 -4.2 °F /  -20.1 °C -8.6 °F /  -22.6 °C 30.40in /  1029.3hPa Calm     81% 0.00in /  0mm 0 W/m2
03:52 -4.4 °F /  -20.2 °C -8.8 °F /  -22.7 °C 30.40in /  1029.3hPa Calm     81% 0.00in /  0mm 0 W/m2
03:58 -4.7 °F /  -20.4 °C -9.0 °F /  -22.8 °C 30.40in /  1029.3hPa Calm     81% 0.00in /  0mm 0 W/m2
04:04 -5.0 °F /  -20.6 °C -9.3 °F /  -22.9 °C 30.40in /  1029.3hPa Calm     81% 0.00in /  0mm 0 W/m2
04:10 -5.4 °F /  -20.8 °C -9.7 °F /  -23.2 °C 30.40in /  1029.3hPa Calm     81% 0.00in /  0mm 0 W/m2
04:16 -5.7 °F /  -20.9 °C -10.0 °F /  -23.3 °C 30.40in /  1029.3hPa Calm     81% 0.00in /  0mm 0 W/m2
04:22 -6.0 °F /  -21.1 °C -10.3 °F /  -23.5 °C 30.40in /  1029.3hPa Calm     81% 0.00in /  0mm 0 W/m2
04:28 -6.6 °F /  -21.4 °C -10.9 °F /  -23.8 °C 30.40in /  1029.3hPa Calm     81% 0.00in /  0mm 0 W/m2
04:34 -6.9 °F /  -21.6 °C -11.2 °F /  -24 °C 30.40in /  1029.3hPa Calm     81% 0.00in /  0mm 0 W/m2
04:40 -7.3 °F /  -21.8 °C -11.6 °F /  -24.2 °C 30.40in /  1029.3hPa Calm     81% 0.00in /  0mm 0 W/m2
04:44 -7.5 °F /  -21.9 °C -11.8 °F /  -24.3 °C 30.40in /  1029.3hPa Calm     81% 0.00in /  0mm 0 W/m2
04:50 -7.9 °F /  -22.2 °C -12.2 °F /  -24.6 °C 30.40in /  1029.3hPa Calm     81% 0.00in /  0mm 0 W/m2
04:52 -8.1 °F /  -22.3 °C -12.4 °F /  -24.7 °C 30.40in /  1029.3hPa Calm     81% 0.00in /  0mm 0 W/m2
04:58 -8.8 °F /  -22.7 °C -13.1 °F /  -25.1 °C 30.40in /  1029.3hPa Calm     81% 0.00in /  0mm 0 W/m2
05:04 -9.1 °F /  -22.8 °C -13.4 °F /  -25.2 °C 30.41in /  1029.7hPa Calm     81% 0.00in /  0mm 0 W/m2
05:10 -9.3 °F /  -22.9 °C -13.5 °F /  -25.3 °C 30.41in /  1029.7hPa Calm     81% 0.00in /  0mm 0 W/m2
05:16 -9.6 °F /  -23.1 °C -13.8 °F /  -25.4 °C 30.41in /  1029.7hPa Calm     81% 0.00in /  0mm 0 W/m2
05:22 -9.9 °F /  -23.3 °C -14.1 °F /  -25.6 °C 30.41in /  1029.7hPa Calm     81% 0.00in /  0mm 0 W/m2
05:28 -10.2 °F /  -23.4 °C -14.4 °F /  -25.8 °C 30.40in /  1029.3hPa Calm     81% 0.00in /  0mm 0 W/m2
05:34 -10.3 °F /  -23.5 °C -14.5 °F /  -25.8 °C 30.40in /  1029.3hPa Calm     81% 0.00in /  0mm 0 W/m2
05:40 -10.5 °F /  -23.6 °C -14.7 °F /  -25.9 °C 30.40in /  1029.3hPa Calm     81% 0.00in /  0mm 0 W/m2
05:46 -10.8 °F /  -23.8 °C -15.0 °F /  -26.1 °C 30.41in /  1029.7hPa Calm     81% 0.00in /  0mm 0 W/m2
05:52 -10.9 °F /  -23.8 °C -15.1 °F /  -26.2 °C 30.41in /  1029.7hPa Calm     81% 0.00in /  0mm 0 W/m2
05:58 -11.1 °F /  -23.9 °C -15.3 °F /  -26.3 °C 30.41in /  1029.7hPa Calm     81% 0.00in /  0mm 0 W/m2
06:04 -11.4 °F /  -24.1 °C -15.6 °F /  -26.4 °C 30.41in /  1029.7hPa Calm     81% 0.00in /  0mm 0 W/m2
06:10 -11.7 °F /  -24.3 °C -15.9 °F /  -26.6 °C 30.42in /  1030hPa Calm     81% 0.00in /  0mm 0 W/m2
06:16 -11.9 °F /  -24.4 °C -16.3 °F /  -26.8 °C 30.42in /  1030hPa Calm     80% 0.00in /  0mm 0 W/m2
06:22 -12.2 °F /  -24.6 °C -16.4 °F /  -26.9 °C 30.42in /  1030hPa Calm     81% 0.00in /  0mm 0 W/m2
06:28 -12.5 °F /  -24.7 °C -16.9 °F /  -27.2 °C 30.42in /  1030hPa Calm     80% 0.00in /  0mm 0 W/m2
06:34 -12.7 °F /  -24.8 °C -17.1 °F /  -27.3 °C 30.42in /  1030hPa Calm     80% 0.00in /  0mm 0 W/m2
06:40 -12.9 °F /  -24.9 °C -17.3 °F /  -27.4 °C 30.42in /  1030hPa Calm     80% 0.00in /  0mm 0 W/m2
06:46 -13.0 °F /  -25 °C -17.4 °F /  -27.4 °C 30.41in /  1029.7hPa Calm     80% 0.00in /  0mm 0 W/m2
06:52 -13.3 °F /  -25.2 °C -17.7 °F /  -27.6 °C 30.41in /  1029.7hPa Calm     80% 0.00in /  0mm 0 W/m2
06:58 -13.7 °F /  -25.4 °C -18.1 °F /  -27.8 °C 30.41in /  1029.7hPa Calm     80% 0.00in /  0mm 0 W/m2
07:04 -13.9 °F /  -25.5 °C -18.3 °F /  -27.9 °C 30.42in /  1030hPa Calm     80% 0.00in /  0mm 0 W/m2
07:12 -14.1 °F /  -25.6 °C -18.5 °F /  -28.1 °C 30.42in /  1030hPa Calm     80% 0.00in /  0mm 0 W/m2
07:14 -14.1 °F /  -25.6 °C -18.5 °F /  -28.1 °C 30.42in /  1030hPa Calm     80% 0.00in /  0mm 0 W/m2
07:20 -14.2 °F /  -25.7 °C -18.6 °F /  -28.1 °C 30.42in /  1030hPa Calm     80% 0.00in /  0mm 0 W/m2
07:24 -14.3 °F /  -25.7 °C -18.7 °F /  -28.2 °C 30.42in /  1030hPa Calm     80% 0.00in /  0mm 0 W/m2
07:30 -14.5 °F /  -25.8 °C -18.9 °F /  -28.3 °C 30.42in /  1030hPa Calm     80% 0.00in /  0mm 0 W/m2
07:36 -14.5 °F /  -25.8 °C -18.9 °F /  -28.3 °C 30.42in /  1030hPa Calm     80% 0.00in /  0mm 0 W/m2
07:42 -14.5 °F /  -25.8 °C -18.9 °F /  -28.3 °C 30.42in /  1030hPa Calm     80% 0.00in /  0mm 0 W/m2
07:48 -14.6 °F /  -25.9 °C -19.0 °F /  -28.3 °C 30.42in /  1030hPa Calm     80% 0.00in /  0mm 0 W/m2
07:54 -14.7 °F /  -25.9 °C -19.1 °F /  -28.4 °C 30.42in /  1030hPa Calm     80% 0.00in /  0mm 0 W/m2
08:00 -14.8 °F /  -26 °C -19.2 °F /  -28.4 °C 30.42in /  1030hPa Calm     80% 0.00in /  0mm 0 W/m2
08:04 -14.7 °F /  -25.9 °C -19.1 °F /  -28.4 °C 30.42in /  1030hPa Calm     80% 0.00in /  0mm 0 W/m2
08:10 -14.7 °F /  -25.9 °C -19.1 °F /  -28.4 °C 30.42in /  1030hPa Calm     80% 0.00in /  0mm 5 W/m2
08:16 -14.6 °F /  -25.9 °C -19.0 °F /  -28.3 °C 30.42in /  1030hPa Calm     80% 0.00in /  0mm 7 W/m2
08:22 -14.4 °F /  -25.8 °C -18.8 °F /  -28.2 °C 30.42in /  1030hPa Calm     80% 0.00in /  0mm 9 W/m2
08:28 -14.1 °F /  -25.6 °C -18.5 °F /  -28.1 °C 30.42in /  1030hPa Calm     80% 0.00in /  0mm 11 W/m2
08:36 -13.7 °F /  -25.4 °C -18.1 °F /  -27.8 °C 30.42in /  1030hPa Calm     80% 0.00in /  0mm 12 W/m2
08:42 -12.9 °F /  -24.9 °C -17.3 °F /  -27.4 °C 30.42in /  1030hPa Calm     80% 0.00in /  0mm 14 W/m2
08:48 -12.0 °F /  -24.4 °C -16.2 °F /  -26.8 °C 30.42in /  1030hPa Calm     81% 0.00in /  0mm 16 W/m2
08:54 -11.2 °F /  -24 °C -15.4 °F /  -26.3 °C 30.42in /  1030hPa Calm     81% 0.00in /  0mm 16 W/m2
09:00 -10.2 °F /  -23.4 °C -14.4 °F /  -25.8 °C 30.42in /  1030hPa Calm     81% 0.00in /  0mm 16 W/m2
09:06 -9.4 °F /  -23 °C -13.6 °F /  -25.3 °C 30.42in /  1030hPa Calm     81% 0.00in /  0mm 19 W/m2
09:12 -8.5 °F /  -22.5 °C -12.8 °F /  -24.9 °C 30.42in /  1030hPa Calm     81% 0.00in /  0mm 21 W/m2
09:18 -7.6 °F /  -22 °C -11.9 °F /  -24.4 °C 30.42in /  1030hPa Calm     81% 0.00in /  0mm 21 W/m2
09:24 -5.3 °F /  -20.7 °C -9.4 °F /  -23 °C 30.42in /  1030hPa Calm     82% 0.00in /  0mm 23 W/m2
09:30 -3.6 °F /  -19.8 °C -7.7 °F /  -22.1 °C 30.42in /  1030hPa Calm     82% 0.00in /  0mm 21 W/m2
09:36 -2.6 °F /  -19.2 °C -7.0 °F /  -21.7 °C 30.42in /  1030hPa Calm     81% 0.00in /  0mm 21 W/m2
09:42 -1.6 °F /  -18.7 °C -6.3 °F /  -21.3 °C 30.42in /  1030hPa Calm     80% 0.00in /  0mm 23 W/m2
09:48 0.0 °F /  -17.8 °C -5.0 °F /  -20.6 °C 30.42in /  1030hPa Calm     79% 0.00in /  0mm 23 W/m2
09:54 0.2 °F /  -17.7 °C -5.0 °F /  -20.6 °C 30.42in /  1030hPa Calm   1.0mph /  1.6km/h 78% 0.00in /  0mm 25 W/m2
10:00 -0.1 °F /  -17.8 °C -5.6 °F /  -20.9 °C 30.42in /  1030hPa Calm   1.0mph /  1.6km/h 77% 0.00in /  0mm 26 W/m2
10:06 0.2 °F /  -17.7 °C -5.6 °F /  -20.9 °C 30.42in /  1030hPa Calm   1.0mph /  1.6km/h 76% 0.00in /  0mm 26 W/m2
10:10 0.7 °F /  -17.4 °C -5.1 °F /  -20.6 °C 30.42in /  1030hPa Calm   1.0mph /  1.6km/h 76% 0.00in /  0mm 28 W/m2
10:16 0.6 °F /  -17.4 °C -5.2 °F /  -20.7 °C 30.42in /  1030hPa SSE 1.0mph /  1.6km/h 2.0mph /  3.2km/h 76% 0.00in /  0mm 30 W/m2
10:22 1.5 °F /  -16.9 °C -4.0 °F /  -20 °C 30.42in /  1030hPa Calm   1.0mph /  1.6km/h 77% 0.00in /  0mm 33 W/m2
10:26 2.3 °F /  -16.5 °C -3.5 °F /  -19.7 °C 30.42in /  1030hPa Calm   1.0mph /  1.6km/h 76% 0.00in /  0mm 33 W/m2
10:32 3.0 °F /  -16.1 °C -2.9 °F /  -19.4 °C 30.41in /  1029.7hPa Calm     76% 0.00in /  0mm 37 W/m2
10:38 3.2 °F /  -16 °C -2.9 °F /  -19.4 °C 30.41in /  1029.7hPa Calm     75% 0.00in /  0mm 40 W/m2
10:44 4.4 °F /  -15.3 °C -1.8 °F /  -18.8 °C 30.41in /  1029.7hPa Calm     75% 0.00in /  0mm 44 W/m2
10:50 4.7 °F /  -15.2 °C -2.1 °F /  -18.9 °C 30.40in /  1029.3hPa Calm   1.0mph /  1.6km/h 73% 0.00in /  0mm 47 W/m2
10:56 5.1 °F /  -14.9 °C -1.1 °F /  -18.4 °C 30.40in /  1029.3hPa Calm   1.0mph /  1.6km/h 75% 0.00in /  0mm 53 W/m2
11:02 5.2 °F /  -14.9 °C -1.3 °F /  -18.5 °C 30.40in /  1029.3hPa Calm     74% 0.00in /  0mm 56 W/m2
11:08 6.7 °F /  -14.1 °C 0.2 °F /  -17.7 °C 30.39in /  1029hPa Calm     74% 0.00in /  0mm 60 W/m2
11:14 7.5 °F /  -13.6 °C 0.4 °F /  -17.6 °C 30.39in /  1029hPa Calm     72% 0.00in /  0mm 63 W/m2
11:20 7.0 °F /  -13.9 °C -0.1 °F /  -17.8 °C 30.39in /  1029hPa Calm     72% 0.00in /  0mm 67 W/m2
11:26 7.8 °F /  -13.4 °C 0.9 °F /  -17.3 °C 30.38in /  1028.7hPa Calm     73% 0.00in /  0mm 72 W/m2
11:32 7.8 °F /  -13.4 °C 0.3 °F /  -17.6 °C 30.37in /  1028.3hPa Calm     71% 0.00in /  0mm 76 W/m2
11:38 7.4 °F /  -13.7 °C 0.6 °F /  -17.4 °C 30.37in /  1028.3hPa Calm     73% 0.00in /  0mm 77 W/m2
11:46 8.9 °F /  -12.8 °C 2.0 °F /  -16.7 °C 30.37in /  1028.3hPa Calm   2.0mph /  3.2km/h 73% 0.00in /  0mm 83 W/m2
11:50 10.1 °F /  -12.2 °C 2.6 °F /  -16.3 °C 30.36in /  1028hPa Calm     71% 0.00in /  0mm 86 W/m2
11:56 9.6 °F /  -12.4 °C 1.8 °F /  -16.8 °C 30.36in /  1028hPa Calm   2.0mph /  3.2km/h 70% 0.00in /  0mm 90 W/m2
11:58 9.9 °F /  -12.3 °C 2.1 °F /  -16.6 °C 30.36in /  1028hPa Calm   2.0mph /  3.2km/h 70% 0.00in /  0mm 91 W/m2
12:04 10.4 °F /  -12 °C 2.5 °F /  -16.4 °C 30.36in /  1028hPa Calm   1.0mph /  1.6km/h 70% 0.00in /  0mm 95 W/m2
12:10 10.6 °F /  -11.9 °C 2.4 °F /  -16.4 °C 30.35in /  1027.7hPa Calm   3.0mph /  4.8km/h 69% 0.00in /  0mm 98 W/m2
12:16 10.4 °F /  -12 °C 2.5 °F /  -16.4 °C 30.35in /  1027.7hPa Calm   3.0mph /  4.8km/h 70% 0.00in /  0mm 102 W/m2
12:22 10.7 °F /  -11.8 °C 1.6 °F /  -16.9 °C 30.34in /  1027.3hPa NNE 1.0mph /  1.6km/h 4.0mph /  6.4km/h 66% 0.00in /  0mm 104 W/m2
12:28 8.0 °F /  -13.3 °C -0.4 °F /  -18 °C 30.34in /  1027.3hPa NE 2.0mph /  3.2km/h 4.0mph /  6.4km/h 68% 0.00in /  0mm 107 W/m2
12:34 7.8 °F /  -13.4 °C 0.0 °F /  -17.8 °C 30.34in /  1027.3hPa ENE 2.0mph /  3.2km/h 3.0mph /  4.8km/h 70% 0.00in /  0mm 113 W/m2
12:40 8.2 °F /  -13.2 °C 0.1 °F /  -17.7 °C 30.33in /  1027hPa NE 2.0mph /  3.2km/h 2.0mph /  3.2km/h 69% 0.00in /  0mm 114 W/m2
12:46 9.1 °F /  -12.7 °C 1.0 °F /  -17.2 °C 30.33in /  1027hPa NE 1.0mph /  1.6km/h 2.0mph /  3.2km/h 69% 0.00in /  0mm 118 W/m2
12:52 10.7 °F /  -11.8 °C 2.2 °F /  -16.6 °C 30.32in /  1026.6hPa NE 1.0mph /  1.6km/h 2.0mph /  3.2km/h 68% 0.00in /  0mm 137 W/m2
12:58 11.8 °F /  -11.2 °C 2.6 °F /  -16.3 °C 30.32in /  1026.6hPa South 2.0mph /  3.2km/h 4.0mph /  6.4km/h 66% 0.00in /  0mm 153 W/m2
13:00 11.8 °F /  -11.2 °C 2.6 °F /  -16.3 °C 30.32in /  1026.6hPa South 2.0mph /  3.2km/h 2.0mph /  3.2km/h 66% 0.00in /  0mm 158 W/m2
13:06 10.0 °F /  -12.2 °C 0.6 °F /  -17.4 °C 30.32in /  1026.6hPa ENE 2.0mph /  3.2km/h 3.0mph /  4.8km/h 65% 0.00in /  0mm 127 W/m2
13:12 9.7 °F /  -12.4 °C 0.9 °F /  -17.3 °C 30.31in /  1026.3hPa ENE 2.0mph /  3.2km/h 2.0mph /  3.2km/h 67% 0.00in /  0mm 123 W/m2
13:18 10.1 °F /  -12.2 °C 1.6 °F /  -16.9 °C 30.31in /  1026.3hPa NE 2.0mph /  3.2km/h 4.0mph /  6.4km/h 68% 0.00in /  0mm 113 W/m2
13:24 10.3 °F /  -12.1 °C 1.2 °F /  -17.1 °C 30.31in /  1026.3hPa NNE 1.0mph /  1.6km/h 3.0mph /  4.8km/h 66% 0.00in /  0mm 114 W/m2
13:30 9.9 °F /  -12.3 °C 0.8 °F /  -17.3 °C 30.31in /  1026.3hPa North 2.0mph /  3.2km/h 4.0mph /  6.4km/h 66% 0.00in /  0mm 81 W/m2
13:36 10.8 °F /  -11.8 °C 2.3 °F /  -16.5 °C 30.31in /  1026.3hPa SSE 3.0mph /  4.8km/h 4.0mph /  6.4km/h 68% 0.00in /  0mm 111 W/m2
13:42 11.2 °F /  -11.6 °C 1.7 °F /  -16.8 °C 30.31in /  1026.3hPa NE 2.0mph /  3.2km/h 3.0mph /  4.8km/h 65% 0.00in /  0mm 67 W/m2
13:44 10.9 °F /  -11.7 °C 1.4 °F /  -17 °C 30.30in /  1026hPa NE 2.0mph /  3.2km/h 3.0mph /  4.8km/h 65% 0.00in /  0mm 83 W/m2
13:50 10.7 °F /  -11.8 °C 1.6 °F /  -16.9 °C 30.30in /  1026hPa NE 1.0mph /  1.6km/h 3.0mph /  4.8km/h 66% 0.00in /  0mm 132 W/m2
13:56 12.5 °F /  -10.8 °C 3.3 °F /  -15.9 °C 30.29in /  1025.6hPa WSW 1.0mph /  1.6km/h 5.0mph /  8km/h 66% 0.00in /  0mm 72 W/m2
14:02 12.8 °F /  -10.7 °C 2.9 °F /  -16.2 °C 30.29in /  1025.6hPa South 3.0mph /  4.8km/h 5.0mph /  8km/h 64% 0.00in /  0mm 169 W/m2
14:08 13.2 °F /  -10.4 °C 3.3 °F /  -15.9 °C 30.29in /  1025.6hPa South 4.0mph /  6.4km/h 9.0mph /  14.5km/h 64% 0.00in /  0mm 144 W/m2
14:14 13.5 °F /  -10.3 °C 3.2 °F /  -16 °C 30.29in /  1025.6hPa SSW 4.0mph /  6.4km/h 7.0mph /  11.3km/h 63% 0.00in /  0mm 178 W/m2
14:20 13.6 °F /  -10.2 °C 2.6 °F /  -16.3 °C 30.29in /  1025.6hPa SW 4.0mph /  6.4km/h 4.0mph /  6.4km/h 61% 0.00in /  0mm 125 W/m2
14:26 13.1 °F /  -10.5 °C 2.5 °F /  -16.4 °C 30.29in /  1025.6hPa West 4.0mph /  6.4km/h 5.0mph /  8km/h 62% 0.00in /  0mm 33 W/m2
14:32 12.9 °F /  -10.6 °C 2.7 °F /  -16.3 °C 30.28in /  1025.3hPa WSW 3.0mph /  4.8km/h 4.0mph /  6.4km/h 63% 0.00in /  0mm 46 W/m2
14:38 13.0 °F /  -10.6 °C 3.1 °F /  -16.1 °C 30.28in /  1025.3hPa SW 3.0mph /  4.8km/h 4.0mph /  6.4km/h 64% 0.00in /  0mm 76 W/m2
14:46 13.2 °F /  -10.4 °C 2.9 °F /  -16.2 °C 30.28in /  1025.3hPa SW 3.0mph /  4.8km/h 8.0mph /  12.9km/h 63% 0.00in /  0mm 60 W/m2
14:54 13.2 °F /  -10.4 °C 3.3 °F /  -15.9 °C 30.28in /  1025.3hPa SW 3.0mph /  4.8km/h 5.0mph /  8km/h 64% 0.00in /  0mm 60 W/m2
15:00 13.3 °F /  -10.4 °C 3.0 °F /  -16.1 °C 30.27in /  1024.9hPa SSW 4.0mph /  6.4km/h 4.0mph /  6.4km/h 63% 0.00in /  0mm 111 W/m2
15:06 14.0 °F /  -10 °C 3.4 °F /  -15.9 °C 30.27in /  1024.9hPa SW 4.0mph /  6.4km/h 5.0mph /  8km/h 62% 0.00in /  0mm 139 W/m2
15:12 14.1 °F /  -9.9 °C 3.5 °F /  -15.8 °C 30.27in /  1024.9hPa South 3.0mph /  4.8km/h 5.0mph /  8km/h 62% 0.00in /  0mm 81 W/m2
15:18 14.2 °F /  -9.9 °C 3.6 °F /  -15.8 °C 30.27in /  1024.9hPa SSW 4.0mph /  6.4km/h 5.0mph /  8km/h 62% 0.00in /  0mm 74 W/m2
15:24 14.3 °F /  -9.8 °C 3.3 °F /  -15.9 °C 30.27in /  1024.9hPa SW 4.0mph /  6.4km/h 4.0mph /  6.4km/h 61% 0.00in /  0mm 93 W/m2
15:30 14.3 °F /  -9.8 °C 2.9 °F /  -16.2 °C 30.26in /  1024.6hPa SW 4.0mph /  6.4km/h 6.0mph /  9.7km/h 60% 0.00in /  0mm 116 W/m2
15:36 14.5 °F /  -9.7 °C 3.1 °F /  -16.1 °C 30.26in /  1024.6hPa SSW 4.0mph /  6.4km/h 6.0mph /  9.7km/h 60% 0.00in /  0mm 88 W/m2
15:42 14.3 °F /  -9.8 °C 2.9 °F /  -16.2 °C 30.26in /  1024.6hPa SW 3.0mph /  4.8km/h 5.0mph /  8km/h 60% 0.00in /  0mm 74 W/m2
15:48 14.1 °F /  -9.9 °C 3.1 °F /  -16.1 °C 30.26in /  1024.6hPa SW 4.0mph /  6.4km/h 5.0mph /  8km/h 61% 0.00in /  0mm 32 W/m2
15:54 14.0 °F /  -10 °C 3.4 °F /  -15.9 °C 30.26in /  1024.6hPa South 3.0mph /  4.8km/h 4.0mph /  6.4km/h 62% 0.00in /  0mm 58 W/m2
16:00 14.0 °F /  -10 °C 3.0 °F /  -16.1 °C 30.26in /  1024.6hPa SSW 2.0mph /  3.2km/h 2.0mph /  3.2km/h 61% 0.00in /  0mm 37 W/m2
16:06 14.0 °F /  -10 °C 3.0 °F /  -16.1 °C 30.26in /  1024.6hPa SSW 2.0mph /  3.2km/h 4.0mph /  6.4km/h 61% 0.00in /  0mm 25 W/m2
16:12 13.9 °F /  -10.1 °C 2.6 °F /  -16.3 °C 30.26in /  1024.6hPa SW 2.0mph /  3.2km/h 4.0mph /  6.4km/h 60% 0.00in /  0mm 18 W/m2
16:14 13.9 °F /  -10.1 °C 2.6 °F /  -16.3 °C 30.26in /  1024.6hPa SW 2.0mph /  3.2km/h 4.0mph /  6.4km/h 60% 0.00in /  0mm 14 W/m2
16:20 13.7 °F /  -10.2 °C 2.0 °F /  -16.7 °C 30.26in /  1024.6hPa WSW 2.0mph /  3.2km/h 4.0mph /  6.4km/h 59% 0.00in /  0mm 9 W/m2
16:26 13.6 °F /  -10.2 °C 1.9 °F /  -16.7 °C 30.26in /  1024.6hPa SW 3.0mph /  4.8km/h 4.0mph /  6.4km/h 59% 0.00in /  0mm 7 W/m2
16:32 13.6 °F /  -10.2 °C 1.9 °F /  -16.7 °C 30.25in /  1024.3hPa SW 2.0mph /  3.2km/h 5.0mph /  8km/h 59% 0.00in /  0mm 5 W/m2
16:36 13.6 °F /  -10.2 °C 1.9 °F /  -16.7 °C 30.25in /  1024.3hPa SSW 2.0mph /  3.2km/h 5.0mph /  8km/h 59% 0.00in /  0mm 0 W/m2
16:42 13.5 °F /  -10.3 °C 1.8 °F /  -16.8 °C 30.25in /  1024.3hPa SSW 2.0mph /  3.2km/h 4.0mph /  6.4km/h 59% 0.00in /  0mm 0 W/m2
16:48 13.6 °F /  -10.2 °C 1.9 °F /  -16.7 °C 30.25in /  1024.3hPa WSW 2.0mph /  3.2km/h 4.0mph /  6.4km/h 59% 0.00in /  0mm 0 W/m2
16:50 13.6 °F /  -10.2 °C 1.9 °F /  -16.7 °C 30.25in /  1024.3hPa WSW 2.0mph /  3.2km/h 3.0mph /  4.8km/h 59% 0.00in /  0mm 0 W/m2
16:56 13.7 °F /  -10.2 °C 2.0 °F /  -16.7 °C 30.25in /  1024.3hPa WSW 2.0mph /  3.2km/h 3.0mph /  4.8km/h 59% 0.00in /  0mm 0 W/m2
17:02 13.8 °F /  -10.1 °C 2.1 °F /  -16.6 °C 30.25in /  1024.3hPa SW 2.0mph /  3.2km/h 3.0mph /  4.8km/h 59% 0.00in /  0mm 0 W/m2
17:08 13.9 °F /  -10.1 °C 1.8 °F /  -16.8 °C 30.25in /  1024.3hPa SW 3.0mph /  4.8km/h 10.0mph /  16.1km/h 58% 0.00in /  0mm 0 W/m2
17:10 14.0 °F /  -10 °C 1.9 °F /  -16.7 °C 30.25in /  1024.3hPa SW 3.0mph /  4.8km/h 3.0mph /  4.8km/h 58% 0.00in /  0mm 0 W/m2
17:16 14.1 °F /  -9.9 °C 2.0 °F /  -16.7 °C 30.25in /  1024.3hPa West 4.0mph /  6.4km/h 6.0mph /  9.7km/h 58% 0.00in /  0mm 0 W/m2
17:22 14.1 °F /  -9.9 °C 2.4 °F /  -16.4 °C 30.25in /  1024.3hPa WSW 3.0mph /  4.8km/h 7.0mph /  11.3km/h 59% 0.00in /  0mm 0 W/m2
17:28 14.1 °F /  -9.9 °C 2.4 °F /  -16.4 °C 30.25in /  1024.3hPa SW 3.0mph /  4.8km/h 7.0mph /  11.3km/h 59% 0.00in /  0mm 0 W/m2
17:34 14.1 °F /  -9.9 °C 2.4 °F /  -16.4 °C 30.25in /  1024.3hPa WSW 4.0mph /  6.4km/h 6.0mph /  9.7km/h 59% 0.00in /  0mm 0 W/m2
17:40 14.2 °F /  -9.9 °C 2.8 °F /  -16.2 °C 30.25in /  1024.3hPa WNW 5.0mph /  8km/h 5.0mph /  8km/h 60% 0.00in /  0mm 0 W/m2
17:46 14.2 °F /  -9.9 °C 2.8 °F /  -16.2 °C 30.25in /  1024.3hPa WSW 5.0mph /  8km/h 13.0mph /  20.9km/h 60% 0.00in /  0mm 0 W/m2
17:52 14.2 °F /  -9.9 °C 3.2 °F /  -16 °C 30.24in /  1023.9hPa SW 6.0mph /  9.7km/h 6.0mph /  9.7km/h 61% 0.00in /  0mm 0 W/m2
17:58 14.1 °F /  -9.9 °C 3.1 °F /  -16.1 °C 30.24in /  1023.9hPa West 4.0mph /  6.4km/h 6.0mph /  9.7km/h 61% 0.00in /  0mm 0 W/m2
18:04 14.1 °F /  -9.9 °C 3.5 °F /  -15.8 °C 30.24in /  1023.9hPa WSW 3.0mph /  4.8km/h 4.0mph /  6.4km/h 62% 0.00in /  0mm 0 W/m2
18:10 14.1 °F /  -9.9 °C 3.8 °F /  -15.7 °C 30.24in /  1023.9hPa SW 3.0mph /  4.8km/h 3.0mph /  4.8km/h 63% 0.00in /  0mm 0 W/m2
18:14 14.1 °F /  -9.9 °C 3.8 °F /  -15.7 °C 30.24in /  1023.9hPa West 4.0mph /  6.4km/h 4.0mph /  6.4km/h 63% 0.00in /  0mm 0 W/m2
18:20 14.1 °F /  -9.9 °C 4.1 °F /  -15.5 °C 30.24in /  1023.9hPa WSW 5.0mph /  8km/h 5.0mph /  8km/h 64% 0.00in /  0mm 0 W/m2
18:26 14.1 °F /  -9.9 °C 4.1 °F /  -15.5 °C 30.25in /  1024.3hPa WSW 5.0mph /  8km/h 6.0mph /  9.7km/h 64% 0.00in /  0mm 0 W/m2
18:32 14.1 °F /  -9.9 °C 4.5 °F /  -15.3 °C 30.24in /  1023.9hPa SW 5.0mph /  8km/h 8.0mph /  12.9km/h 65% 0.00in /  0mm 0 W/m2
18:34 14.1 °F /  -9.9 °C 4.5 °F /  -15.3 °C 30.24in /  1023.9hPa West 5.0mph /  8km/h 8.0mph /  12.9km/h 65% 0.00in /  0mm 0 W/m2
18:46 14.0 °F /  -10 °C 5.1 °F /  -14.9 °C 30.24in /  1023.9hPa West 5.0mph /  8km/h 11.0mph /  17.7km/h 67% 0.00in /  0mm 0 W/m2
18:52 14.0 °F /  -10 °C 5.1 °F /  -14.9 °C 30.24in /  1023.9hPa West 5.0mph /  8km/h 6.0mph /  9.7km/h 67% 0.00in /  0mm 0 W/m2
18:58 13.9 °F /  -10.1 °C 5.6 °F /  -14.7 °C 30.24in /  1023.9hPa WNW 5.0mph /  8km/h 6.0mph /  9.7km/h 69% 0.00in /  0mm 0 W/m2
19:04 13.7 °F /  -10.2 °C 6.0 °F /  -14.4 °C 30.24in /  1023.9hPa SSW 5.0mph /  8km/h 8.0mph /  12.9km/h 71% 0.00in /  0mm 0 W/m2
19:10 13.7 °F /  -10.2 °C 6.3 °F /  -14.3 °C 30.24in /  1023.9hPa SW 5.0mph /  8km/h 5.0mph /  8km/h 72% 0.00in /  0mm 0 W/m2
19:16 13.6 °F /  -10.2 °C 6.5 °F /  -14.2 °C 30.24in /  1023.9hPa West 5.0mph /  8km/h 6.0mph /  9.7km/h 73% 0.00in /  0mm 0 W/m2
19:20 13.4 °F /  -10.3 °C 7.0 °F /  -13.9 °C 30.24in /  1023.9hPa West 5.0mph /  8km/h 5.0mph /  8km/h 75% 0.00in /  0mm 0 W/m2
19:26 13.1 °F /  -10.5 °C 7.2 °F /  -13.8 °C 30.24in /  1023.9hPa West 5.0mph /  8km/h 8.0mph /  12.9km/h 77% 0.00in /  0mm 0 W/m2
19:32 12.9 °F /  -10.6 °C 7.9 °F /  -13.4 °C 30.24in /  1023.9hPa SW 6.0mph /  9.7km/h 9.0mph /  14.5km/h 80% 0.00in /  0mm 0 W/m2
19:40 12.8 °F /  -10.7 °C 8.3 °F /  -13.2 °C 30.24in /  1023.9hPa WSW 6.0mph /  9.7km/h 9.0mph /  14.5km/h 82% 0.00in /  0mm 0 W/m2
19:46 12.9 °F /  -10.6 °C 8.7 °F /  -12.9 °C 30.24in /  1023.9hPa West 5.0mph /  8km/h 9.0mph /  14.5km/h 83% 0.00in /  0mm 0 W/m2
19:52 12.9 °F /  -10.6 °C 8.7 °F /  -12.9 °C 30.24in /  1023.9hPa WNW 5.0mph /  8km/h 5.0mph /  8km/h 83% 0.00in /  0mm 0 W/m2
19:58 12.9 °F /  -10.6 °C 9.0 °F /  -12.8 °C 30.24in /  1023.9hPa West 5.0mph /  8km/h 6.0mph /  9.7km/h 84% 0.00in /  0mm 0 W/m2
20:04 12.9 °F /  -10.6 °C 9.0 °F /  -12.8 °C 30.25in /  1024.3hPa WNW 4.0mph /  6.4km/h 5.0mph /  8km/h 84% 0.00in /  0mm 0 W/m2
20:10 12.9 °F /  -10.6 °C 9.2 °F /  -12.7 °C 30.25in /  1024.3hPa WNW 5.0mph /  8km/h 5.0mph /  8km/h 85% 0.00in /  0mm 0 W/m2
20:16 12.9 °F /  -10.6 °C 9.2 °F /  -12.7 °C 30.26in /  1024.6hPa WSW 5.0mph /  8km/h 5.0mph /  8km/h 85% 0.00in /  0mm 0 W/m2
20:22 12.9 °F /  -10.6 °C 9.5 °F /  -12.5 °C 30.26in /  1024.6hPa West 4.0mph /  6.4km/h 6.0mph /  9.7km/h 86% 0.00in /  0mm 0 W/m2
20:28 12.9 °F /  -10.6 °C 9.5 °F /  -12.5 °C 30.26in /  1024.6hPa WNW 4.0mph /  6.4km/h 6.0mph /  9.7km/h 86% 0.00in /  0mm 0 W/m2
20:34 12.9 °F /  -10.6 °C 9.5 °F /  -12.5 °C 30.26in /  1024.6hPa WNW 3.0mph /  4.8km/h 4.0mph /  6.4km/h 86% 0.00in /  0mm 0 W/m2
20:40 12.8 °F /  -10.7 °C 9.4 °F /  -12.6 °C 30.26in /  1024.6hPa West 3.0mph /  4.8km/h 4.0mph /  6.4km/h 86% 0.00in /  0mm 0 W/m2
20:46 12.8 °F /  -10.7 °C 9.7 °F /  -12.4 °C 30.26in /  1024.6hPa West 3.0mph /  4.8km/h 5.0mph /  8km/h 87% 0.00in /  0mm 0 W/m2
20:52 12.8 °F /  -10.7 °C 9.7 °F /  -12.4 °C 30.27in /  1024.9hPa West 4.0mph /  6.4km/h 4.0mph /  6.4km/h 87% 0.00in /  0mm 0 W/m2
20:58 12.8 °F /  -10.7 °C 9.7 °F /  -12.4 °C 30.27in /  1024.9hPa West 4.0mph /  6.4km/h 4.0mph /  6.4km/h 87% 0.00in /  0mm 0 W/m2
21:04 12.8 °F /  -10.7 °C 9.7 °F /  -12.4 °C 30.27in /  1024.9hPa WNW 3.0mph /  4.8km/h 3.0mph /  4.8km/h 87% 0.00in /  0mm 0 W/m2
21:10 12.8 °F /  -10.7 °C 9.7 °F /  -12.4 °C 30.27in /  1024.9hPa WNW 3.0mph /  4.8km/h 3.0mph /  4.8km/h 87% 0.00in /  0mm 0 W/m2
21:16 12.8 °F /  -10.7 °C 9.7 °F /  -12.4 °C 30.27in /  1024.9hPa WNW 4.0mph /  6.4km/h 4.0mph /  6.4km/h 87% 0.00in /  0mm 0 W/m2
21:20 12.8 °F /  -10.7 °C 9.7 °F /  -12.4 °C 30.27in /  1024.9hPa NW 4.0mph /  6.4km/h 4.0mph /  6.4km/h 87% 0.00in /  0mm 0 W/m2
21:26 12.8 °F /  -10.7 °C 9.7 °F /  -12.4 °C 30.27in /  1024.9hPa WNW 4.0mph /  6.4km/h 6.0mph /  9.7km/h 87% 0.00in /  0mm 0 W/m2
21:32 12.6 °F /  -10.8 °C 9.5 °F /  -12.5 °C 30.28in /  1025.3hPa WNW 5.0mph /  8km/h 6.0mph /  9.7km/h 87% 0.00in /  0mm 0 W/m2
21:38 12.2 °F /  -11 °C 9.1 °F /  -12.7 °C 30.28in /  1025.3hPa NW 5.0mph /  8km/h 11.0mph /  17.7km/h 87% 0.00in /  0mm 0 W/m2
21:44 11.9 °F /  -11.2 °C 8.8 °F /  -12.9 °C 30.28in /  1025.3hPa NW 5.0mph /  8km/h 7.0mph /  11.3km/h 87% 0.00in /  0mm 0 W/m2
21:46 11.8 °F /  -11.2 °C 8.7 °F /  -12.9 °C 30.28in /  1025.3hPa NNW 5.0mph /  8km/h 7.0mph /  11.3km/h 87% 0.00in /  0mm 0 W/m2
21:52 11.6 °F /  -11.3 °C 8.5 °F /  -13.1 °C 30.29in /  1025.6hPa WNW 4.0mph /  6.4km/h 5.0mph /  8km/h 87% 0.00in /  0mm 0 W/m2
21:58 11.2 °F /  -11.6 °C 8.1 °F /  -13.3 °C 30.29in /  1025.6hPa WNW 5.0mph /  8km/h 8.0mph /  12.9km/h 87% 0.00in /  0mm 0 W/m2
22:04 10.7 °F /  -11.8 °C 7.6 °F /  -13.6 °C 30.29in /  1025.6hPa NNW 6.0mph /  9.7km/h 10.0mph /  16.1km/h 87% 0.00in /  0mm 0 W/m2
22:22 10.0 °F /  -12.2 °C 6.6 °F /  -14.1 °C 30.30in /  1026hPa NW 5.0mph /  8km/h 6.0mph /  9.7km/h 86% 0.00in /  0mm 0 W/m2
22:28 9.8 °F /  -12.3 °C 6.5 °F /  -14.2 °C 30.30in /  1026hPa West 4.0mph /  6.4km/h 7.0mph /  11.3km/h 86% 0.00in /  0mm 0 W/m2
22:40 9.6 °F /  -12.4 °C 6.3 °F /  -14.3 °C 30.30in /  1026hPa WNW 5.0mph /  8km/h 5.0mph /  8km/h 86% 0.00in /  0mm 0 W/m2
22:46 9.4 °F /  -12.6 °C 6.1 °F /  -14.4 °C 30.31in /  1026.3hPa WNW 5.0mph /  8km/h 5.0mph /  8km/h 86% 0.00in /  0mm 0 W/m2
22:52 9.2 °F /  -12.7 °C 5.9 °F /  -14.5 °C 30.31in /  1026.3hPa NNW 6.0mph /  9.7km/h 8.0mph /  12.9km/h 86% 0.00in /  0mm 0 W/m2
22:58 9.2 °F /  -12.7 °C 5.9 °F /  -14.5 °C 30.31in /  1026.3hPa WNW 5.0mph /  8km/h 8.0mph /  12.9km/h 86% 0.00in /  0mm 0 W/m2
23:02 9.1 °F /  -12.7 °C 5.8 °F /  -14.6 °C 30.32in /  1026.6hPa WNW 4.0mph /  6.4km/h 6.0mph /  9.7km/h 86% 0.00in /  0mm 0 W/m2
23:08 9.0 °F /  -12.8 °C 5.4 °F /  -14.8 °C 30.32in /  1026.6hPa WNW 4.0mph /  6.4km/h 6.0mph /  9.7km/h 85% 0.00in /  0mm 0 W/m2
23:14 8.9 °F /  -12.8 °C 5.3 °F /  -14.8 °C 30.32in /  1026.6hPa NW 4.0mph /  6.4km/h 6.0mph /  9.7km/h 85% 0.00in /  0mm 0 W/m2
23:20 8.7 °F /  -12.9 °C 5.1 °F /  -14.9 °C 30.32in /  1026.6hPa West 4.0mph /  6.4km/h 4.0mph /  6.4km/h 85% 0.00in /  0mm 0 W/m2
23:24 8.5 °F /  -13.1 °C 4.7 °F /  -15.2 °C 30.32in /  1026.6hPa NW 4.0mph /  6.4km/h 4.0mph /  6.4km/h 84% 0.00in /  0mm 0 W/m2
23:30 8.4 °F /  -13.1 °C 4.6 °F /  -15.2 °C 30.32in /  1026.6hPa WNW 4.0mph /  6.4km/h 4.0mph /  6.4km/h 84% 0.00in /  0mm 0 W/m2
23:36 8.3 °F /  -13.2 °C 4.5 °F /  -15.3 °C 30.32in /  1026.6hPa WNW 4.0mph /  6.4km/h 6.0mph /  9.7km/h 84% 0.00in /  0mm 0 W/m2
23:42 8.2 °F /  -13.2 °C 4.4 °F /  -15.3 °C 30.32in /  1026.6hPa NW 3.0mph /  4.8km/h 5.0mph /  8km/h 84% 0.00in /  0mm 0 W/m2
23:48 8.0 °F /  -13.3 °C 4.2 °F /  -15.4 °C 30.33in /  1027hPa WNW 3.0mph /  4.8km/h 5.0mph /  8km/h 84% 0.00in /  0mm 0 W/m2
23:54 7.9 °F /  -13.4 °C 4.1 °F /  -15.5 °C 30.33in /  1027hPa NW 3.0mph /  4.8km/h 3.0mph /  4.8km/h 84% 0.00in /  0mm 0 W/m2
Country Meadow, Clay, NY, USA
Compliments of Weather Underground - 2 mb